Time;durP1;ratioP1;P1;durP2;ratioP2;P2;SDS_P1;SDS_P2;PMS_P1;PMS_P2;Temp;Humidity;BMP_temperature;BMP_pressure;BME280_temperature;BME280_humidity;BME280_pressure;Samples;Min_cycle;Max_cycle;Signal;HPM_P1;HPM_P2
2022/10/07 00:01:34;;;;;;;17.73;2.80;;;9.50;99.90;;;;;;5065290;28;20224;-69
2022/10/07 00:04:00;;;;;;;13.50;2.87;;;9.40;99.90;;;;;;5064665;28;20045;-70
2022/10/07 00:06:26;;;;;;;13.43;3.37;;;9.50;99.90;;;;;;5053342;28;20554;-70
2022/10/07 00:08:52;;;;;;;13.67;3.00;;;9.50;99.90;;;;;;5057291;28;20194;-70
2022/10/07 00:11:24;;;;;;;18.20;2.70;;;9.60;99.90;;;;;;5060758;28;20559;-70
2022/10/07 00:13:53;;;;;;;18.77;2.78;;;9.50;99.90;;;;;;5044742;28;20044;-70
2022/10/07 00:16:24;;;;;;;15.07;2.87;;;9.50;99.90;;;;;;5033340;28;20510;-70
2022/10/07 00:18:51;;;;;;;12.43;3.20;;;9.50;99.90;;;;;;5059753;28;20497;-70
2022/10/07 00:21:18;;;;;;;13.73;3.00;;;9.50;99.90;;;;;;5063711;28;20125;-70
2022/10/07 00:23:45;;;;;;;11.13;2.87;;;9.50;99.90;;;;;;5062647;28;20128;-70
2022/10/07 00:26:14;;;;;;;12.15;2.58;;;9.50;99.90;;;;;;5030780;28;20191;-69
2022/10/07 00:28:41;;;;;;;14.03;2.80;;;9.50;99.90;;;;;;5057070;28;20048;-69
2022/10/07 00:31:31;;;;;;;13.50;3.13;;;9.50;99.90;;;;;;5047418;28;20045;-70
2022/10/07 00:33:57;;;;;;;14.83;3.07;;;9.50;99.90;;;;;;5054227;28;20482;-70
2022/10/07 00:36:26;;;;;;;16.33;3.30;;;9.50;99.90;;;;;;5038908;28;20053;-70
2022/10/07 00:38:57;;;;;;;11.90;2.87;;;9.50;99.90;;;;;;5059393;28;20072;-69
2022/10/07 00:41:30;;;;;;;12.57;2.90;;;9.50;99.90;;;;;;5063110;28;20053;-70
2022/10/07 00:43:56;;;;;;;15.33;3.67;;;9.60;99.90;;;;;;5054331;28;20071;-69
2022/10/07 00:46:34;;;;;;;19.53;3.57;;;9.50;99.90;;;;;;5053540;28;20094;-70
2022/10/07 00:49:04;;;;;;;20.50;3.67;;;9.50;99.90;;;;;;5059956;28;20053;-69
2022/10/07 00:51:32;;;;;;;12.90;3.43;;;9.50;99.90;;;;;;5063931;28;20209;-69
2022/10/07 00:53:59;;;;;;;13.87;2.70;;;9.40;99.90;;;;;;5045687;28;20136;-69
2022/10/07 00:56:28;;;;;;;16.10;3.17;;;9.40;99.90;;;;;;5034064;28;20525;-70
2022/10/07 00:58:54;;;;;;;14.37;2.90;;;9.40;99.90;;;;;;5059108;28;20603;-69
2022/10/07 01:01:20;;;;;;;14.67;3.07;;;9.60;99.90;;;;;;5059247;28;20056;-69
2022/10/07 01:03:47;;;;;;;13.57;2.83;;;9.50;99.90;;;;;;5055342;28;20055;-70
2022/10/07 01:06:13;;;;;;;12.37;3.07;;;9.50;99.90;;;;;;5053765;28;20048;-69
2022/10/07 01:08:41;;;;;;;16.10;2.93;;;9.50;99.90;;;;;;5055570;28;20703;-69
2022/10/07 01:11:15;;;;;;;12.67;3.17;;;9.50;99.90;;;;;;5046793;28;20092;-69
2022/10/07 01:14:28;;;;;;;15.83;3.10;;;9.50;99.90;;;;;;5059672;28;20048;-70
2022/10/07 01:17:13;;;;;;;14.17;3.40;;;9.40;99.90;;;;;;5029803;28;20409;-69
2022/10/07 01:20:09;;;;;;;14.77;3.30;;;9.40;99.90;;;;;;5059483;28;20043;-69
2022/10/07 01:22:38;;;;;;;15.70;2.90;;;9.30;99.90;;;;;;5061682;28;20488;-69
2022/10/07 01:25:23;;;;;;;12.50;2.90;;;9.40;99.90;;;;;;5063171;28;20528;-69
2022/10/07 01:27:57;;;;;;;13.43;3.23;;;9.40;99.90;;;;;;5061173;28;20404;-69
2022/10/07 01:30:23;;;;;;;11.43;2.97;;;9.30;99.90;;;;;;5056126;28;20039;-69
2022/10/07 01:33:03;;;;;;;14.90;3.40;;;9.20;99.90;;;;;;5058195;28;20056;-70
2022/10/07 01:35:35;;;;;;;18.05;3.58;;;9.20;99.90;;;;;;5067115;28;20045;-69
2022/10/07 01:38:05;;;;;;;;;;;9.20;99.90;;;;;;5034747;28;20048;-69
2022/10/07 01:40:47;;;;;;;12.27;3.30;;;9.30;99.90;;;;;;5050610;28;20625;-69
2022/10/07 01:43:15;;;;;;;15.38;3.47;;;9.30;99.90;;;;;;5056516;28;20470;-69
2022/10/07 01:45:42;;;;;;;16.50;3.50;;;9.30;99.90;;;;;;5064409;28;20048;-69
2022/10/07 01:48:08;;;;;;;18.70;3.50;;;9.20;99.90;;;;;;5036344;28;20398;-69
2022/10/07 01:50:35;;;;;;;15.37;3.77;;;9.30;99.90;;;;;;5053287;28;20079;-69
2022/10/07 01:53:14;;;;;;;14.17;3.73;;;9.20;99.90;;;;;;5049573;28;20136;-69
2022/10/07 01:55:54;;;;;;;14.17;3.27;;;9.20;99.90;;;;;;5050521;28;20163;-69
2022/10/07 01:58:19;;;;;;;11.40;3.17;;;9.20;99.90;;;;;;5049849;28;20045;-69
2022/10/07 02:00:52;;;;;;;13.07;3.23;;;9.10;99.90;;;;;;5066712;28;20056;-69
2022/10/07 02:03:42;;;;;;;13.33;3.50;;;9.20;99.90;;;;;;5065221;28;20040;-69
2022/10/07 02:06:32;;;;;;;10.77;3.40;;;9.20;99.90;;;;;;5061760;28;20127;-70
2022/10/07 02:09:05;;;;;;;13.70;3.90;;;9.20;99.90;;;;;;5063575;28;20044;-69
2022/10/07 02:11:38;;;;;;;18.97;4.23;;;9.10;99.90;;;;;;5061315;28;20366;-70
2022/10/07 02:14:14;;;;;;;16.67;3.73;;;9.20;99.90;;;;;;5063194;28;20047;-69
2022/10/07 02:17:04;;;;;;;16.23;3.63;;;9.20;99.90;;;;;;5052305;28;20633;-70
2022/10/07 02:19:36;;;;;;;17.37;4.03;;;9.20;99.90;;;;;;5066491;28;20047;-69
2022/10/07 02:22:02;;;;;;;16.43;3.90;;;9.10;99.90;;;;;;5067110;28;20044;-69
2022/10/07 02:24:32;;;;;;;16.40;4.10;;;9.00;99.90;;;;;;5066566;28;20049;-69
2022/10/07 02:27:02;;;;;;;17.07;3.73;;;9.10;99.90;;;;;;5051956;28;20072;-69
2022/10/07 02:29:32;;;;;;;16.60;4.20;;;9.10;99.90;;;;;;5066545;28;20442;-69
2022/10/07 02:32:00;;;;;;;15.80;3.90;;;9.30;99.90;;;;;;5065413;28;20048;-70
2022/10/07 02:34:29;;;;;;;17.27;4.53;;;9.20;99.90;;;;;;5077048;28;20075;-69
2022/10/07 02:37:05;;;;;;;21.13;4.57;;;9.10;99.90;;;;;;5051756;28;20755;-69
2022/10/07 02:39:31;;;;;;;21.90;4.73;;;9.20;99.90;;;;;;5065461;28;20499;-69
2022/10/07 02:42:03;;;;;;;19.53;4.90;;;9.30;99.90;;;;;;5064060;28;20055;-69
2022/10/07 02:44:49;;;;;;;15.90;4.23;;;9.30;99.90;;;;;;5049937;28;20102;-70
2022/10/07 02:47:27;;;;;;;15.57;4.00;;;9.20;99.90;;;;;;5048444;28;20124;-69
2022/10/07 02:49:59;;;;;;;14.60;4.23;;;9.10;99.90;;;;;;5063439;28;20514;-69
2022/10/07 02:52:29;;;;;;;11.15;3.75;;;9.10;99.90;;;;;;5063999;28;20041;-69
2022/10/07 02:54:59;;;;;;;12.23;4.27;;;9.10;99.90;;;;;;5066988;28;20563;-69
2022/10/07 02:57:29;;;;;;;15.30;4.50;;;9.10;99.90;;;;;;5050353;28;20040;-70
2022/10/07 02:59:57;;;;;;;16.73;4.30;;;9.00;99.90;;;;;;5065510;28;20060;-69
2022/10/07 03:02:51;;;;;;;16.97;4.53;;;9.00;99.90;;;;;;5052574;28;20044;-70
2022/10/07 03:05:18;;;;;;;13.27;4.57;;;9.00;99.90;;;;;;5061192;28;20060;-69
2022/10/07 03:07:51;;;;;;;18.17;4.73;;;9.00;99.90;;;;;;5050641;28;20072;-69
2022/10/07 03:10:17;;;;;;;16.03;4.57;;;8.90;99.90;;;;;;5066544;28;20056;-70
2022/10/07 03:12:43;;;;;;;20.80;5.10;;;9.00;99.90;;;;;;5052646;28;20515;-69
2022/10/07 03:15:10;;;;;;;19.83;5.10;;;9.00;99.90;;;;;;5063420;28;20059;-70
2022/10/07 03:17:37;;;;;;;18.43;4.57;;;8.90;99.90;;;;;;5048887;28;20055;-70
2022/10/07 03:20:03;;;;;;;21.87;5.13;;;8.90;99.90;;;;;;5066156;28;20496;-69
2022/10/07 03:22:29;;;;;;;18.63;4.33;;;8.90;99.90;;;;;;5063520;28;20048;-69
2022/10/07 03:24:55;;;;;;;16.23;4.57;;;8.70;99.90;;;;;;5059610;28;20041;-69
2022/10/07 03:27:20;;;;;;;17.13;4.93;;;8.70;99.90;;;;;;5038161;28;20049;-69
2022/10/07 03:29:47;;;;;;;17.43;4.83;;;8.70;99.90;;;;;;5050683;28;20037;-70
2022/10/07 03:32:14;;;;;;;18.27;4.63;;;8.60;99.90;;;;;;5057245;28;20049;-70
2022/10/07 03:34:39;;;;;;;22.67;4.93;;;8.70;99.90;;;;;;5064042;28;20084;-69
2022/10/07 03:37:05;;;;;;;20.90;5.00;;;8.70;99.90;;;;;;5049144;28;20049;-69
2022/10/07 03:39:31;;;;;;;25.53;4.73;;;8.70;99.90;;;;;;5065671;28;20052;-69
2022/10/07 03:41:57;;;;;;;21.03;5.13;;;8.70;99.90;;;;;;5052204;28;20961;-69
2022/10/07 03:44:23;;;;;;;20.40;5.93;;;8.70;99.90;;;;;;5046696;28;20494;-69
2022/10/07 03:46:49;;;;;;;17.23;4.90;;;8.60;99.90;;;;;;5050213;28;20079;-69
2022/10/07 03:49:15;;;;;;;16.50;4.60;;;8.60;99.90;;;;;;5063395;28;20120;-70
2022/10/07 03:51:41;;;;;;;20.63;5.23;;;8.60;99.90;;;;;;5047219;28;20124;-69
2022/10/07 03:54:06;;;;;;;16.40;5.17;;;8.60;99.90;;;;;;5064800;28;20590;-70
2022/10/07 03:56:33;;;;;;;24.30;7.43;;;8.60;99.90;;;;;;5050389;28;20052;-70
2022/10/07 03:58:59;;;;;;;27.77;9.07;;;8.60;99.90;;;;;;5061573;28;20041;-70
2022/10/07 04:01:25;;;;;;;28.13;9.20;;;8.60;99.90;;;;;;5047532;28;20109;-69
2022/10/07 04:03:51;;;;;;;41.70;18.07;;;8.50;99.90;;;;;;5063423;28;20059;-70
2022/10/07 04:06:17;;;;;;;51.80;21.57;;;8.40;99.90;;;;;;5053104;28;20655;-70
2022/10/07 04:08:43;;;;;;;45.97;19.13;;;8.40;99.90;;;;;;5058403;28;20048;-69
2022/10/07 04:11:10;;;;;;;52.77;21.10;;;8.40;99.90;;;;;;5043398;28;20547;-69
2022/10/07 04:13:36;;;;;;;25.37;8.50;;;8.40;99.90;;;;;;5028555;28;20044;-69
2022/10/07 04:16:07;;;;;;;22.53;6.93;;;8.50;99.90;;;;;;5063568;28;20047;-69
2022/10/07 04:18:32;;;;;;;44.42;14.13;;;8.40;99.90;;;;;;5043714;28;20044;-69
2022/10/07 04:20:59;;;;;;;41.37;14.80;;;8.40;99.90;;;;;;5062796;28;20048;-69
2022/10/07 04:23:25;;;;;;;87.30;34.77;;;8.50;99.90;;;;;;5046437;28;20537;-70
2022/10/07 04:25:51;;;;;;;34.60;11.00;;;8.40;99.90;;;;;;5063495;28;20056;-70
2022/10/07 04:28:26;;;;;;;32.73;10.07;;;8.40;99.90;;;;;;5038526;28;20048;-70
2022/10/07 04:30:52;;;;;;;61.80;22.53;;;8.40;99.90;;;;;;5062396;28;20080;-70
2022/10/07 04:33:20;;;;;;;30.57;10.73;;;8.60;99.90;;;;;;5063811;28;20066;-69
2022/10/07 04:35:47;;;;;;;76.93;28.93;;;8.40;99.90;;;;;;5060825;28;20619;-69
2022/10/07 04:38:14;;;;;;;38.63;14.63;;;8.40;99.90;;;;;;5047913;28;20051;-69
2022/10/07 04:40:46;;;;;;;76.00;29.97;;;8.50;99.90;;;;;;5063624;28;20474;-70
2022/10/07 04:43:22;;;;;;;46.87;16.93;;;8.60;99.90;;;;;;5050295;28;20076;-69
2022/10/07 04:45:50;;;;;;;34.27;13.00;;;8.50;99.90;;;;;;5044662;28;20045;-69
2022/10/07 04:48:18;;;;;;;47.30;19.03;;;8.60;99.90;;;;;;5048547;28;20102;-69
2022/10/07 04:50:44;;;;;;;53.63;20.37;;;8.60;99.90;;;;;;5064581;28;20041;-69
2022/10/07 04:53:15;;;;;;;26.20;10.23;;;8.70;99.90;;;;;;5048050;28;20041;-70
2022/10/07 04:55:43;;;;;;;44.63;16.10;;;8.70;99.90;;;;;;5047866;28;20186;-69
2022/10/07 04:58:09;;;;;;;34.23;12.83;;;8.70;99.90;;;;;;5044374;28;20049;-70
2022/10/07 05:00:40;;;;;;;34.87;10.67;;;8.70;99.90;;;;;;5061108;28;20044;-69
2022/10/07 05:03:06;;;;;;;32.63;10.57;;;8.70;99.90;;;;;;5040943;28;20044;-69
2022/10/07 05:05:33;;;;;;;42.67;16.13;;;8.70;99.90;;;;;;5050385;28;20553;-69
2022/10/07 05:07:59;;;;;;;36.70;13.03;;;8.70;99.90;;;;;;5048075;28;20048;-69
2022/10/07 05:10:24;;;;;;;32.60;12.20;;;8.60;99.90;;;;;;5063042;28;20098;-69
2022/10/07 05:12:50;;;;;;;24.67;9.33;;;8.70;99.90;;;;;;5047446;28;20061;-69
2022/10/07 05:15:16;;;;;;;38.33;14.33;;;8.80;99.90;;;;;;5053811;28;20083;-69
2022/10/07 05:17:42;;;;;;;39.80;14.00;;;8.80;99.90;;;;;;5048140;28;20435;-70
2022/10/07 05:20:09;;;;;;;33.93;11.50;;;8.70;99.90;;;;;;5062915;28;20056;-69
2022/10/07 05:22:35;;;;;;;69.97;26.57;;;8.80;99.90;;;;;;5048057;28;20056;-69
2022/10/07 05:25:01;;;;;;;48.30;20.10;;;8.70;99.90;;;;;;5064014;28;20091;-69
2022/10/07 05:27:26;;;;;;;30.67;11.17;;;8.90;99.90;;;;;;5031882;28;20132;-70
2022/10/07 05:29:52;;;;;;;41.07;14.77;;;8.90;99.90;;;;;;5039099;28;20094;-69
2022/10/07 05:32:18;;;;;;;40.00;15.27;;;8.90;99.90;;;;;;5063401;28;20057;-70
2022/10/07 05:34:43;;;;;;;36.93;11.87;;;8.90;99.90;;;;;;5064638;28;20041;-69
2022/10/07 05:37:11;;;;;;;40.97;13.60;;;8.80;99.90;;;;;;5047180;28;20044;-69
2022/10/07 05:39:36;;;;;;;36.37;9.70;;;8.80;99.90;;;;;;5063191;28;20127;-69
2022/10/07 05:42:03;;;;;;;34.07;12.13;;;8.80;99.90;;;;;;5042852;28;20575;-69
2022/10/07 05:44:30;;;;;;;31.43;8.83;;;8.80;99.90;;;;;;5060490;28;20496;-69
2022/10/07 05:46:57;;;;;;;37.33;11.43;;;8.70;99.90;;;;;;5037738;28;20097;-69
2022/10/07 05:49:23;;;;;;;28.07;9.10;;;8.80;99.90;;;;;;5061022;28;20412;-70
2022/10/07 05:51:50;;;;;;;28.23;8.63;;;8.90;99.90;;;;;;5064459;28;20048;-70
2022/10/07 05:54:16;;;;;;;31.30;9.43;;;8.90;99.90;;;;;;5061784;28;20048;-69
2022/10/07 05:56:42;;;;;;;27.53;9.73;;;8.90;99.90;;;;;;5048799;28;20098;-70
2022/10/07 05:59:09;;;;;;;35.43;11.23;;;8.90;99.90;;;;;;5059899;28;20072;-69
2022/10/07 06:01:35;;;;;;;32.17;11.70;;;9.00;99.90;;;;;;5062843;28;20049;-70
2022/10/07 06:04:01;;;;;;;25.87;9.23;;;8.90;99.90;;;;;;5063114;28;20052;-69
2022/10/07 06:06:28;;;;;;;30.80;10.10;;;8.90;99.90;;;;;;5050455;28;20129;-70
2022/10/07 06:13:06;;;;;;;27.23;9.67;;;8.90;99.90;;;;;;5041868;28;20421;-70
2022/10/07 06:14:23;;;;;;;25.83;8.23;;;9.00;99.90;;;;;;5062593;28;20055;-70
2022/10/07 06:16:49;;;;;;;25.27;8.20;;;9.00;99.90;;;;;;5050654;28;20048;-70
2022/10/07 06:19:21;;;;;;;32.07;8.80;;;9.00;99.90;;;;;;5031699;28;20045;-69
2022/10/07 06:21:47;;;;;;;27.53;8.20;;;9.00;99.90;;;;;;5063200;28;20056;-70
2022/10/07 06:24:13;;;;;;;30.00;8.67;;;8.90;99.90;;;;;;5064909;28;20068;-69
2022/10/07 06:26:41;;;;;;;28.00;8.00;;;9.10;99.90;;;;;;5053609;28;20102;-70
2022/10/07 06:29:07;;;;;;;35.73;10.23;;;9.20;99.90;;;;;;5060936;28;20079;-69
2022/10/07 06:31:33;;;;;;;28.37;8.67;;;9.20;99.90;;;;;;5065989;28;20055;-69
2022/10/07 06:33:59;;;;;;;25.17;7.80;;;9.30;99.90;;;;;;5059983;28;20064;-69
2022/10/07 06:36:25;;;;;;;28.23;10.00;;;9.30;99.90;;;;;;5050016;28;20767;-70
2022/10/07 06:38:53;;;;;;;29.77;9.07;;;9.30;99.90;;;;;;5058898;28;20147;-69
2022/10/07 06:41:20;;;;;;;21.80;7.80;;;9.40;99.90;;;;;;5062154;28;20105;-70
2022/10/07 06:43:45;;;;;;;26.93;8.33;;;9.40;99.90;;;;;;5042996;28;20098;-70
2022/10/07 06:46:17;;;;;;;27.30;11.20;;;9.40;99.90;;;;;;5054512;28;20617;-70
2022/10/07 06:48:44;;;;;;;30.33;11.30;;;9.60;99.90;;;;;;5055550;28;20045;-70
2022/10/07 06:51:16;;;;;;;28.83;10.03;;;9.60;99.90;;;;;;5062748;28;20064;-69
2022/10/07 06:53:42;;;;;;;27.08;8.20;;;9.70;99.90;;;;;;5061755;28;20048;-69
2022/10/07 06:56:10;;;;;;;27.03;10.93;;;9.70;99.90;;;;;;5057215;28;20110;-70
2022/10/07 06:58:36;;;;;;;26.27;9.07;;;9.80;99.90;;;;;;5050766;28;20041;-69
2022/10/07 07:01:01;;;;;;;28.83;9.43;;;9.80;99.90;;;;;;5063669;28;20052;-69
2022/10/07 07:03:28;;;;;;;23.23;7.70;;;10.00;99.90;;;;;;5062382;28;20050;-70
2022/10/07 07:05:54;;;;;;;29.47;8.90;;;9.90;99.90;;;;;;5054101;28;20044;-70
2022/10/07 07:08:21;;;;;;;23.35;8.15;;;9.90;99.90;;;;;;5029741;28;20048;-69
2022/10/07 07:10:47;;;;;;;18.70;8.07;;;10.10;99.90;;;;;;5054182;28;20048;-70
2022/10/07 07:13:14;;;;;;;20.67;7.20;;;10.20;99.90;;;;;;5025609;28;20044;-70
2022/10/07 07:15:40;;;;;;;23.60;7.43;;;10.30;99.90;;;;;;5042982;28;20052;-71
2022/10/07 07:18:08;;;;;;;33.03;13.57;;;10.40;99.90;;;;;;5027162;28;20071;-70
2022/10/07 07:20:36;;;;;;;28.47;9.60;;;10.40;99.90;;;;;;5044469;28;20771;-70
2022/10/07 07:23:03;;;;;;;29.47;8.20;;;10.50;99.90;;;;;;5027038;28;20109;-69
2022/10/07 07:25:31;;;;;;;25.23;7.70;;;10.50;99.90;;;;;;5041001;28;20519;-70
2022/10/07 07:28:00;;;;;;;22.93;7.27;;;10.60;99.90;;;;;;5027546;28;20049;-70
2022/10/07 07:30:27;;;;;;;23.40;6.83;;;10.50;99.90;;;;;;5042550;28;20037;-70
2022/10/07 07:32:54;;;;;;;20.15;7.53;;;10.60;99.90;;;;;;5040635;28;20059;-70
2022/10/07 07:35:21;;;;;;;22.60;7.30;;;10.70;99.90;;;;;;5044243;28;20055;-70
2022/10/07 07:37:47;;;;;;;29.20;8.50;;;10.70;99.90;;;;;;5026009;28;20119;-70
2022/10/07 07:40:12;;;;;;;23.60;7.47;;;10.70;99.90;;;;;;5026946;28;20063;-70
2022/10/07 07:42:38;;;;;;;25.52;8.85;;;10.80;99.90;;;;;;5009026;28;20045;-70
2022/10/07 07:45:04;;;;;;;19.67;6.68;;;11.00;99.90;;;;;;5026023;28;20040;-69
2022/10/07 07:47:30;;;;;;;27.45;7.40;;;11.00;99.90;;;;;;5026293;28;20056;-70
2022/10/07 07:49:55;;;;;;;20.30;6.05;;;11.10;99.90;;;;;;5026232;28;20049;-70
2022/10/07 07:52:24;;;;;;;24.73;6.38;;;11.20;99.90;;;;;;5041765;28;20044;-70
2022/10/07 07:54:51;;;;;;;20.50;6.05;;;11.60;99.90;;;;;;5042764;28;20068;-70
2022/10/07 07:57:17;;;;;;;18.27;6.05;;;11.80;99.90;;;;;;5010194;28;20548;-70
2022/10/07 07:59:42;;;;;;;23.35;6.30;;;11.60;99.90;;;;;;5041819;28;20054;-70
2022/10/07 08:02:11;;;;;;;24.38;6.93;;;11.60;99.90;;;;;;5039971;28;20673;-70
2022/10/07 08:04:37;;;;;;;20.88;6.78;;;11.50;99.90;;;;;;5040813;28;20122;-70
2022/10/07 08:07:02;;;;;;;19.42;6.43;;;11.60;99.90;;;;;;5025162;28;20044;-70
2022/10/07 08:09:28;;;;;;;23.92;6.60;;;11.50;99.90;;;;;;5023515;28;20040;-70
2022/10/07 08:11:55;;;;;;;21.77;6.25;;;11.60;99.90;;;;;;5024061;28;20079;-70
2022/10/07 08:14:21;;;;;;;26.80;7.00;;;11.70;99.90;;;;;;5036943;28;20507;-70
2022/10/07 08:16:48;;;;;;;19.60;6.32;;;11.70;99.90;;;;;;5025867;28;20068;-70
2022/10/07 08:19:14;;;;;;;20.70;7.05;;;11.80;99.90;;;;;;5036465;28;20125;-70
2022/10/07 08:21:40;;;;;;;21.52;7.35;;;11.90;99.90;;;;;;5041278;28;20052;-70
2022/10/07 08:24:08;;;;;;;19.15;6.18;;;12.20;99.90;;;;;;5042811;28;20476;-70
2022/10/07 08:26:36;;;;;;;21.75;6.05;;;12.30;99.90;;;;;;5028456;28;20050;-70
2022/10/07 08:29:02;;;;;;;23.05;6.88;;;12.30;99.90;;;;;;5022431;28;20075;-69
2022/10/07 08:31:28;;;;;;;25.08;6.25;;;12.30;99.90;;;;;;5009019;28;20083;-70
2022/10/07 08:33:59;;;;;;;27.17;7.13;;;12.30;99.90;;;;;;5040184;28;20049;-69
2022/10/07 08:36:27;;;;;;;20.70;5.43;;;12.40;99.90;;;;;;5029319;28;20048;-70
2022/10/07 08:38:53;;;;;;;19.30;5.85;;;12.50;99.90;;;;;;5038759;28;20036;-70
2022/10/07 08:41:56;;;;;;;16.60;5.82;;;12.50;99.90;;;;;;5041996;28;20048;-70
2022/10/07 08:44:52;;;;;;;21.20;6.45;;;12.60;99.90;;;;;;5041660;28;20037;-70
2022/10/07 08:47:27;;;;;;;23.20;7.57;;;12.70;99.90;;;;;;5009859;28;20572;-70
2022/10/07 08:49:53;;;;;;;16.48;5.00;;;12.80;99.90;;;;;;5041959;28;20115;-70
2022/10/07 08:52:39;;;;;;;27.77;5.97;;;12.80;99.90;;;;;;5042757;28;20139;-70
2022/10/07 08:55:39;;;;;;;22.73;5.55;;;12.90;99.90;;;;;;5042891;28;20411;-70
2022/10/07 08:58:21;;;;;;;17.70;5.53;;;13.10;99.90;;;;;;5020510;28;20048;-70
2022/10/07 09:00:56;;;;;;;25.42;5.63;;;13.30;99.90;;;;;;5041106;28;20056;-70
2022/10/07 09:03:34;;;;;;;15.05;4.72;;;13.40;99.90;;;;;;5040416;28;20644;-70
2022/10/07 09:06:07;;;;;;;23.75;4.80;;;13.40;99.90;;;;;;5042553;28;20083;-70
2022/10/07 09:08:39;;;;;;;20.70;5.07;;;13.50;99.90;;;;;;5028652;28;20511;-70
2022/10/07 09:11:17;;;;;;;19.83;5.32;;;13.50;99.90;;;;;;5041976;28;20048;-70
2022/10/07 09:13:48;;;;;;;19.08;5.30;;;13.70;99.90;;;;;;5039358;28;20048;-70
2022/10/07 09:16:29;;;;;;;18.85;4.93;;;13.70;99.90;;;;;;5031080;28;20220;-71
2022/10/07 09:18:58;;;;;;;15.75;4.72;;;13.80;99.90;;;;;;5036452;28;20408;-71
2022/10/07 09:21:35;;;;;;;18.15;5.30;;;13.80;99.90;;;;;;5038632;28;20492;-70
2022/10/07 09:24:23;;;;;;;23.15;5.05;;;13.90;99.90;;;;;;5057130;28;20036;-69
2022/10/07 09:26:53;;;;;;;21.58;5.68;;;13.80;99.90;;;;;;5026826;28;20056;-70
2022/10/07 09:29:22;;;;;;;21.45;5.45;;;14.00;99.90;;;;;;5040564;28;20627;-70
2022/10/07 09:31:48;;;;;;;19.48;5.05;;;14.00;99.90;;;;;;5042294;28;20895;-70
2022/10/07 09:34:23;;;;;;;17.10;4.72;;;14.10;99.90;;;;;;5038456;28;20079;-70
2022/10/07 09:37:24;;;;;;;15.35;4.90;;;14.10;99.90;;;;;;5010829;28;20527;-70
2022/10/07 09:39:58;;;;;;;25.55;5.10;;;14.10;99.90;;;;;;4983173;28;20063;-70
2022/10/07 09:42:29;;;;;;;16.65;5.15;;;14.10;99.90;;;;;;5038279;28;20051;-70
2022/10/07 09:44:58;;;;;;;22.80;5.00;;;14.30;99.90;;;;;;5041789;28;20177;-70
2022/10/07 09:47:29;;;;;;;25.83;5.75;;;14.30;99.90;;;;;;5024340;28;20059;-71
2022/10/07 09:49:58;;;;;;;19.10;4.93;;;14.30;99.90;;;;;;5045260;28;20059;-70
2022/10/07 09:52:31;;;;;;;23.63;5.60;;;14.30;99.90;;;;;;5045976;28;20059;-70
2022/10/07 09:55:30;;;;;;;21.42;5.82;;;14.30;99.90;;;;;;5047716;28;20826;-71
2022/10/07 09:58:01;;;;;;;20.17;5.00;;;14.50;99.90;;;;;;5028254;28;20056;-70
2022/10/07 10:00:28;;;;;;;24.17;5.47;;;14.50;99.90;;;;;;5043749;28;20056;-70
2022/10/07 10:03:04;;;;;;;18.70;4.95;;;14.60;99.90;;;;;;5045705;28;20052;-70
2022/10/07 10:05:37;;;;;;;15.18;4.70;;;14.70;99.90;;;;;;5045591;28;20048;-70
2022/10/07 10:08:04;;;;;;;20.02;5.13;;;14.80;99.90;;;;;;5027604;28;20049;-70
2022/10/07 10:10:33;;;;;;;17.52;4.70;;;14.80;99.90;;;;;;5044618;28;20045;-70
2022/10/07 10:13:01;;;;;;;17.75;4.80;;;14.90;99.90;;;;;;5027754;28;20049;-70
2022/10/07 10:15:28;;;;;;;19.85;4.90;;;14.80;99.90;;;;;;5045021;28;20075;-70
2022/10/07 10:17:55;;;;;;;20.38;4.53;;;14.80;99.90;;;;;;5028601;28;20107;-70
2022/10/07 10:20:38;;;;;;;20.20;5.05;;;15.00;99.90;;;;;;5045145;28;20052;-72
2022/10/07 10:23:42;;;;;;;17.88;4.82;;;15.20;99.90;;;;;;5043744;28;20048;-70
2022/10/07 10:26:26;;;;;;;23.13;4.65;;;15.10;99.90;;;;;;5038382;28;20052;-70
2022/10/07 10:29:24;;;;;;;23.25;4.97;;;15.10;99.90;;;;;;5039910;28;20049;-70
2022/10/07 10:31:53;;;;;;;21.33;4.75;;;15.20;99.90;;;;;;5044209;28;20056;-70
2022/10/07 10:34:31;;;;;;;19.88;4.45;;;15.40;99.90;;;;;;5025183;28;20102;-70
2022/10/07 10:37:17;;;;;;;16.33;3.97;;;15.50;99.90;;;;;;5024158;28;20503;-71
2022/10/07 10:40:17;;;;;;;18.25;4.60;;;15.50;99.90;;;;;;5040959;28;20057;-71
2022/10/07 10:43:07;;;;;;;14.68;4.22;;;15.50;99.90;;;;;;5040287;28;20320;-70
2022/10/07 10:46:11;;;;;;;19.88;4.78;;;15.50;99.90;;;;;;5007874;28;21699;-69
2022/10/07 10:48:43;;;;;;;14.65;3.78;;;15.20;99.90;;;;;;5016836;28;20396;-70
2022/10/07 10:51:09;;;;;;;17.33;4.10;;;15.20;99.90;;;;;;5044659;28;20109;-70
2022/10/07 10:53:37;;;;;;;23.10;4.10;;;15.10;99.90;;;;;;5042549;28;20048;-70
2022/10/07 10:56:11;;;;;;;16.00;3.80;;;15.10;99.90;;;;;;5037311;28;20044;-70
2022/10/07 10:58:57;;;;;;;14.40;3.85;;;15.10;99.90;;;;;;5015609;28;20052;-70
2022/10/07 11:01:29;;;;;;;20.90;4.90;;;15.10;99.90;;;;;;5019354;28;20358;-71
2022/10/07 11:03:54;;;;;;;;;;;15.10;99.90;;;;;;5020601;28;20083;-71
2022/10/07 11:06:21;;;;;;;16.52;4.05;;;15.20;99.90;;;;;;5027698;28;20161;-71
2022/10/07 11:08:47;;;;;;;18.88;3.70;;;15.40;99.90;;;;;;5033783;28;20396;-71
2022/10/07 11:11:20;;;;;;;12.82;3.30;;;15.50;99.90;;;;;;5034673;28;20063;-71
2022/10/07 11:14:16;;;;;;;16.15;3.80;;;15.60;99.90;;;;;;5038093;28;20067;-71
2022/10/07 11:16:44;;;;;;;20.60;3.83;;;15.80;99.90;;;;;;5022293;28;20576;-71
2022/10/07 11:19:27;;;;;;;16.98;3.92;;;16.00;99.90;;;;;;5040054;28;20049;-70
2022/10/07 11:21:58;;;;;;;14.27;3.70;;;16.20;99.90;;;;;;5041588;28;20040;-70
2022/10/07 11:24:38;;;;;;;17.05;3.88;;;16.20;99.90;;;;;;5037687;28;20245;-70
2022/10/07 11:27:37;;;;;;;19.25;3.60;;;16.20;99.90;;;;;;5022131;28;20113;-70
2022/10/07 11:30:16;;;;;;;14.95;3.20;;;16.30;99.90;;;;;;5037683;28;20056;-71
2022/10/07 11:32:55;;;;;;;14.65;3.90;;;16.40;99.90;;;;;;5039018;28;20565;-70
2022/10/07 11:35:30;;;;;;;18.88;3.80;;;16.30;99.90;;;;;;5041530;28;20067;-70
2022/10/07 11:38:04;;;;;;;17.88;3.78;;;16.30;99.90;;;;;;5023811;28;20037;-69
2022/10/07 11:40:33;;;;;;;16.15;3.13;;;16.20;99.90;;;;;;5039185;28;20532;-70
2022/10/07 11:43:11;;;;;;;15.05;3.10;;;16.20;99.90;;;;;;5039328;28;20114;-70
2022/10/07 11:45:50;;;;;;;14.63;3.20;;;16.30;99.90;;;;;;5040626;28;20036;-70
2022/10/07 11:48:48;;;;;;;19.35;3.72;;;16.40;99.90;;;;;;5023011;28;20396;-70
2022/10/07 11:51:45;;;;;;;15.25;3.17;;;16.40;99.90;;;;;;5024705;28;20072;-71
2022/10/07 11:54:19;;;;;;;17.13;3.83;;;16.40;99.90;;;;;;5037425;28;20052;-71
2022/10/07 11:56:48;;;;;;;16.38;3.78;;;16.40;99.90;;;;;;5027436;28;20052;-70
2022/10/07 11:59:36;;;;;;;14.90;3.28;;;16.50;99.90;;;;;;5037929;28;20053;-70
2022/10/07 12:02:02;;;;;;;17.58;4.03;;;16.30;99.90;;;;;;5042517;28;20049;-70
2022/10/07 12:04:34;;;;;;;18.98;3.80;;;16.20;99.90;;;;;;5035889;28;20087;-70
2022/10/07 12:07:30;;;;;;;13.60;3.55;;;16.20;99.90;;;;;;5021069;28;20087;-70
2022/10/07 12:10:05;;;;;;;16.10;3.30;;;16.10;99.90;;;;;;5035384;28;20135;-70
2022/10/07 12:12:44;;;;;;;16.08;3.70;;;16.10;99.90;;;;;;5039511;28;20558;-70
2022/10/07 12:15:41;;;;;;;18.63;3.30;;;16.10;99.90;;;;;;5042831;28;20080;-70
2022/10/07 12:18:06;;;;;;;16.00;3.58;;;16.20;99.90;;;;;;5023870;28;20052;-70
2022/10/07 12:20:33;;;;;;;18.17;3.88;;;16.30;99.90;;;;;;5041394;28;20052;-70
2022/10/07 12:23:17;;;;;;;19.10;3.20;;;16.30;99.90;;;;;;5025344;28;20052;-69
2022/10/07 12:25:45;;;;;;;14.13;3.28;;;16.20;99.90;;;;;;5040207;28;20526;-70
2022/10/07 12:28:28;;;;;;;17.40;3.20;;;16.20;99.90;;;;;;5023232;28;20056;-70
2022/10/07 12:31:02;;;;;;;13.70;3.53;;;16.10;99.90;;;;;;5041240;28;20944;-70
2022/10/07 12:33:41;;;;;;;12.45;3.25;;;16.10;99.90;;;;;;5039748;28;20044;-70
2022/10/07 12:36:28;;;;;;;14.68;3.05;;;16.00;99.90;;;;;;5033057;28;20051;-69
2022/10/07 12:38:58;;;;;;;19.00;3.17;;;16.10;99.90;;;;;;5036461;28;20091;-70
2022/10/07 12:41:29;;;;;;;17.20;2.95;;;16.00;99.90;;;;;;5040955;28;20097;-70
2022/10/07 12:44:05;;;;;;;20.75;3.10;;;15.90;99.90;;;;;;5040871;28;21085;-70
2022/10/07 12:46:36;;;;;;;18.92;2.78;;;15.90;99.90;;;;;;5028251;28;20102;-71
2022/10/07 12:49:13;;;;;;;11.73;3.22;;;16.00;99.90;;;;;;5038151;28;20056;-70
2022/10/07 12:51:39;;;;;;;10.70;2.60;;;16.00;99.90;;;;;;5025208;28;20129;-70
2022/10/07 12:54:10;;;;;;;13.02;2.92;;;16.00;99.90;;;;;;5039754;28;20048;-70
2022/10/07 12:56:36;;;;;;;13.43;2.88;;;16.00;99.90;;;;;;5028870;28;20097;-70
2022/10/07 13:02:43;;;;;;;21.70;3.00;;;16.00;99.90;;;;;;5039956;28;20121;-70
2022/10/07 13:05:30;;;;;;;14.93;2.90;;;16.00;99.90;;;;;;5041890;28;20064;-70
2022/10/07 13:08:06;;;;;;;15.68;2.63;;;16.20;99.90;;;;;;5024739;28;20495;-70
2022/10/07 13:10:54;;;;;;;13.73;2.65;;;16.20;99.90;;;;;;5040048;28;20566;-71